sensor_id;sensor_type;location;lat;lon;timestamp;temperature;humidity
6110;DHT22;3085;49.444;11.054;2022-07-22T00:01:59;24.00;99.90
6110;DHT22;3085;49.444;11.054;2022-07-22T00:04:26;24.10;99.90
6110;DHT22;3085;49.444;11.054;2022-07-22T00:06:54;24.10;99.90
6110;DHT22;3085;49.444;11.054;2022-07-22T00:09:21;24.10;99.90
6110;DHT22;3085;49.444;11.054;2022-07-22T00:11:48;24.00;99.90
6110;DHT22;3085;49.444;11.054;2022-07-22T00:14:15;24.10;99.90
6110;DHT22;3085;49.444;11.054;2022-07-22T00:16:41;24.10;99.90
6110;DHT22;3085;49.444;11.054;2022-07-22T00:19:08;24.00;99.90
6110;DHT22;3085;49.444;11.054;2022-07-22T00:21:35;24.10;99.90
6110;DHT22;3085;49.444;11.054;2022-07-22T00:24:04;24.00;99.90
6110;DHT22;3085;49.444;11.054;2022-07-22T00:26:31;24.00;99.90
6110;DHT22;3085;49.444;11.054;2022-07-22T00:28:58;24.00;99.90
6110;DHT22;3085;49.444;11.054;2022-07-22T00:31:25;23.80;99.90
6110;DHT22;3085;49.444;11.054;2022-07-22T00:33:51;23.80;99.90
6110;DHT22;3085;49.444;11.054;2022-07-22T00:36:18;23.60;99.90
6110;DHT22;3085;49.444;11.054;2022-07-22T00:38:45;23.60;99.90
6110;DHT22;3085;49.444;11.054;2022-07-22T00:41:13;23.80;99.90
6110;DHT22;3085;49.444;11.054;2022-07-22T00:43:54;23.70;99.90
6110;DHT22;3085;49.444;11.054;2022-07-22T00:46:22;23.50;99.90
6110;DHT22;3085;49.444;11.054;2022-07-22T00:48:48;23.40;99.90
6110;DHT22;3085;49.444;11.054;2022-07-22T00:51:16;23.20;99.90
6110;DHT22;3085;49.444;11.054;2022-07-22T00:53:43;23.10;99.90
6110;DHT22;3085;49.444;11.054;2022-07-22T00:56:10;23.30;99.90
6110;DHT22;3085;49.444;11.054;2022-07-22T00:58:39;23.20;99.90
6110;DHT22;3085;49.444;11.054;2022-07-22T01:01:05;23.20;99.90
6110;DHT22;3085;49.444;11.054;2022-07-22T01:03:32;23.10;99.90
6110;DHT22;3085;49.444;11.054;2022-07-22T01:05:59;23.00;99.90
6110;DHT22;3085;49.444;11.054;2022-07-22T01:08:26;23.00;99.90
6110;DHT22;3085;49.444;11.054;2022-07-22T01:10:53;23.00;99.90
6110;DHT22;3085;49.444;11.054;2022-07-22T01:13:19;23.00;99.90
6110;DHT22;3085;49.444;11.054;2022-07-22T01:15:47;23.00;99.90
6110;DHT22;3085;49.444;11.054;2022-07-22T01:18:14;22.90;99.90
6110;DHT22;3085;49.444;11.054;2022-07-22T01:20:42;22.90;99.90
6110;DHT22;3085;49.444;11.054;2022-07-22T01:23:09;22.90;99.90
6110;DHT22;3085;49.444;11.054;2022-07-22T01:25:36;22.80;99.90
6110;DHT22;3085;49.444;11.054;2022-07-22T01:28:03;22.80;99.90
6110;DHT22;3085;49.444;11.054;2022-07-22T01:30:30;22.80;99.90
6110;DHT22;3085;49.444;11.054;2022-07-22T01:32:56;22.80;99.90
6110;DHT22;3085;49.444;11.054;2022-07-22T01:35:23;22.80;99.90
6110;DHT22;3085;49.444;11.054;2022-07-22T01:37:51;22.80;99.90
6110;DHT22;3085;49.444;11.054;2022-07-22T01:40:18;22.70;99.90
6110;DHT22;3085;49.444;11.054;2022-07-22T01:42:45;22.60;99.90
6110;DHT22;3085;49.444;11.054;2022-07-22T01:45:11;22.70;99.90
6110;DHT22;3085;49.444;11.054;2022-07-22T01:47:38;22.50;99.90
6110;DHT22;3085;49.444;11.054;2022-07-22T01:50:06;22.60;99.90
6110;DHT22;3085;49.444;11.054;2022-07-22T01:52:34;22.40;99.90
6110;DHT22;3085;49.444;11.054;2022-07-22T01:55:04;22.30;99.90
6110;DHT22;3085;49.444;11.054;2022-07-22T01:57:31;22.20;99.90
6110;DHT22;3085;49.444;11.054;2022-07-22T01:59:58;22.10;99.90
6110;DHT22;3085;49.444;11.054;2022-07-22T02:02:25;21.90;99.90
6110;DHT22;3085;49.444;11.054;2022-07-22T02:04:52;21.80;99.90
6110;DHT22;3085;49.444;11.054;2022-07-22T02:07:18;21.70;99.90
6110;DHT22;3085;49.444;11.054;2022-07-22T02:09:45;21.80;99.90
6110;DHT22;3085;49.444;11.054;2022-07-22T02:12:13;21.70;99.90
6110;DHT22;3085;49.444;11.054;2022-07-22T02:14:40;21.70;99.90
6110;DHT22;3085;49.444;11.054;2022-07-22T02:17:07;21.60;99.90
6110;DHT22;3085;49.444;11.054;2022-07-22T02:19:34;21.50;99.90
6110;DHT22;3085;49.444;11.054;2022-07-22T02:22:00;21.50;99.90
6110;DHT22;3085;49.444;11.054;2022-07-22T02:24:27;21.40;99.90
6110;DHT22;3085;49.444;11.054;2022-07-22T02:26:54;21.20;99.90
6110;DHT22;3085;49.444;11.054;2022-07-22T02:29:22;21.10;99.90
6110;DHT22;3085;49.444;11.054;2022-07-22T02:31:49;21.20;99.90
6110;DHT22;3085;49.444;11.054;2022-07-22T02:34:16;21.10;99.90
6110;DHT22;3085;49.444;11.054;2022-07-22T02:36:43;21.10;99.90
6110;DHT22;3085;49.444;11.054;2022-07-22T02:39:10;21.10;99.90
6110;DHT22;3085;49.444;11.054;2022-07-22T02:41:36;21.10;99.90
6110;DHT22;3085;49.444;11.054;2022-07-22T02:44:04;21.10;99.90
6110;DHT22;3085;49.444;11.054;2022-07-22T02:46:32;21.10;99.90
6110;DHT22;3085;49.444;11.054;2022-07-22T02:48:59;21.10;99.90
6110;DHT22;3085;49.444;11.054;2022-07-22T02:51:26;21.10;99.90
6110;DHT22;3085;49.444;11.054;2022-07-22T02:53:53;21.00;99.90
6110;DHT22;3085;49.444;11.054;2022-07-22T02:56:20;20.90;99.90
6110;DHT22;3085;49.444;11.054;2022-07-22T02:58:46;20.90;99.90
6110;DHT22;3085;49.444;11.054;2022-07-22T03:01:17;20.90;99.90
6110;DHT22;3085;49.444;11.054;2022-07-22T03:03:46;21.00;99.90
6110;DHT22;3085;49.444;11.054;2022-07-22T03:06:13;20.90;99.90
6110;DHT22;3085;49.444;11.054;2022-07-22T03:08:40;20.90;99.90
6110;DHT22;3085;49.444;11.054;2022-07-22T03:11:06;20.90;99.90
6110;DHT22;3085;49.444;11.054;2022-07-22T03:13:33;20.90;99.90
6110;DHT22;3085;49.444;11.054;2022-07-22T03:16:00;20.80;99.90
6110;DHT22;3085;49.444;11.054;2022-07-22T03:18:27;20.90;99.90
6110;DHT22;3085;49.444;11.054;2022-07-22T03:20:55;20.80;99.90
6110;DHT22;3085;49.444;11.054;2022-07-22T03:23:22;20.70;99.90
6110;DHT22;3085;49.444;11.054;2022-07-22T03:25:48;20.70;99.90
6110;DHT22;3085;49.444;11.054;2022-07-22T03:28:15;20.60;99.90
6110;DHT22;3085;49.444;11.054;2022-07-22T03:30:42;20.60;99.90
6110;DHT22;3085;49.444;11.054;2022-07-22T03:33:09;20.50;99.90
6110;DHT22;3085;49.444;11.054;2022-07-22T03:35:36;20.60;99.90
6110;DHT22;3085;49.444;11.054;2022-07-22T03:38:04;20.40;99.90
6110;DHT22;3085;49.444;11.054;2022-07-22T03:40:31;20.60;99.90
6110;DHT22;3085;49.444;11.054;2022-07-22T03:42:57;20.50;99.90
6110;DHT22;3085;49.444;11.054;2022-07-22T03:45:24;20.60;99.90
6110;DHT22;3085;49.444;11.054;2022-07-22T03:47:52;20.50;99.90
6110;DHT22;3085;49.444;11.054;2022-07-22T03:50:20;20.50;99.90
6110;DHT22;3085;49.444;11.054;2022-07-22T03:52:46;20.40;99.90
6110;DHT22;3085;49.444;11.054;2022-07-22T03:55:14;20.30;99.90
6110;DHT22;3085;49.444;11.054;2022-07-22T03:57:41;20.30;99.90
6110;DHT22;3085;49.444;11.054;2022-07-22T04:00:09;20.30;99.90
6110;DHT22;3085;49.444;11.054;2022-07-22T04:02:36;20.10;99.90
6110;DHT22;3085;49.444;11.054;2022-07-22T04:05:03;20.10;99.90
6110;DHT22;3085;49.444;11.054;2022-07-22T04:07:31;20.20;99.90
6110;DHT22;3085;49.444;11.054;2022-07-22T04:09:57;20.20;99.90
6110;DHT22;3085;49.444;11.054;2022-07-22T04:12:32;20.10;99.90
6110;DHT22;3085;49.444;11.054;2022-07-22T04:14:59;20.10;99.90
6110;DHT22;3085;49.444;11.054;2022-07-22T04:17:26;20.10;99.90
6110;DHT22;3085;49.444;11.054;2022-07-22T04:19:53;20.20;99.90
6110;DHT22;3085;49.444;11.054;2022-07-22T04:22:19;20.30;99.90
6110;DHT22;3085;49.444;11.054;2022-07-22T04:24:46;20.30;99.90
6110;DHT22;3085;49.444;11.054;2022-07-22T04:27:13;20.30;99.90
6110;DHT22;3085;49.444;11.054;2022-07-22T04:29:41;20.40;99.90
6110;DHT22;3085;49.444;11.054;2022-07-22T04:32:08;20.80;99.90
6110;DHT22;3085;49.444;11.054;2022-07-22T04:34:35;20.10;99.90
6110;DHT22;3085;49.444;11.054;2022-07-22T04:37:02;20.00;99.90
6110;DHT22;3085;49.444;11.054;2022-07-22T04:39:29;20.00;99.90
6110;DHT22;3085;49.444;11.054;2022-07-22T04:41:56;20.00;99.90
6110;DHT22;3085;49.444;11.054;2022-07-22T04:44:23;19.90;99.90
6110;DHT22;3085;49.444;11.054;2022-07-22T04:46:51;19.90;99.90
6110;DHT22;3085;49.444;11.054;2022-07-22T04:49:18;19.90;99.90
6110;DHT22;3085;49.444;11.054;2022-07-22T04:51:45;19.90;99.90
6110;DHT22;3085;49.444;11.054;2022-07-22T04:54:11;20.00;99.90
6110;DHT22;3085;49.444;11.054;2022-07-22T04:56:38;19.80;99.90
6110;DHT22;3085;49.444;11.054;2022-07-22T04:59:05;19.90;99.90
6110;DHT22;3085;49.444;11.054;2022-07-22T05:01:32;19.90;99.90
6110;DHT22;3085;49.444;11.054;2022-07-22T05:04:00;19.90;99.90
6110;DHT22;3085;49.444;11.054;2022-07-22T05:06:27;19.90;99.90
6110;DHT22;3085;49.444;11.054;2022-07-22T05:08:54;19.80;99.90
6110;DHT22;3085;49.444;11.054;2022-07-22T05:11:20;19.80;99.90
6110;DHT22;3085;49.444;11.054;2022-07-22T05:13:47;19.80;99.90
6110;DHT22;3085;49.444;11.054;2022-07-22T05:16:14;19.90;99.90
6110;DHT22;3085;49.444;11.054;2022-07-22T05:18:41;19.90;99.90
6110;DHT22;3085;49.444;11.054;2022-07-22T05:21:09;20.10;99.90
6110;DHT22;3085;49.444;11.054;2022-07-22T05:23:36;20.10;99.90
6110;DHT22;3085;49.444;11.054;2022-07-22T05:26:04;20.00;99.90
6110;DHT22;3085;49.444;11.054;2022-07-22T05:28:31;20.00;99.90
6110;DHT22;3085;49.444;11.054;2022-07-22T05:30:58;20.10;99.90
6110;DHT22;3085;49.444;11.054;2022-07-22T05:33:25;20.10;99.90
6110;DHT22;3085;49.444;11.054;2022-07-22T05:35:52;19.00;99.90
6110;DHT22;3085;49.444;11.054;2022-07-22T05:38:20;20.00;99.90
6110;DHT22;3085;49.444;11.054;2022-07-22T05:40:47;20.20;99.90
6110;DHT22;3085;49.444;11.054;2022-07-22T05:43:14;20.20;99.90
6110;DHT22;3085;49.444;11.054;2022-07-22T05:45:41;20.20;99.90
6110;DHT22;3085;49.444;11.054;2022-07-22T05:48:08;20.20;99.90
6110;DHT22;3085;49.444;11.054;2022-07-22T05:50:35;20.30;99.90
6110;DHT22;3085;49.444;11.054;2022-07-22T05:53:03;20.40;99.90
6110;DHT22;3085;49.444;11.054;2022-07-22T05:55:31;20.50;99.90
6110;DHT22;3085;49.444;11.054;2022-07-22T05:57:58;20.50;99.90
6110;DHT22;3085;49.444;11.054;2022-07-22T06:00:25;20.60;99.90
6110;DHT22;3085;49.444;11.054;2022-07-22T06:02:52;20.60;99.90
6110;DHT22;3085;49.444;11.054;2022-07-22T06:05:19;20.50;99.90
6110;DHT22;3085;49.444;11.054;2022-07-22T06:07:46;20.60;99.90
6110;DHT22;3085;49.444;11.054;2022-07-22T06:10:13;20.80;99.90
6110;DHT22;3085;49.444;11.054;2022-07-22T06:12:41;20.90;99.90
6110;DHT22;3085;49.444;11.054;2022-07-22T06:15:08;20.90;99.90
6110;DHT22;3085;49.444;11.054;2022-07-22T06:17:37;21.00;99.90
6110;DHT22;3085;49.444;11.054;2022-07-22T06:20:05;21.00;99.90
6110;DHT22;3085;49.444;11.054;2022-07-22T06:22:32;21.00;99.90
6110;DHT22;3085;49.444;11.054;2022-07-22T06:24:59;21.10;99.90
6110;DHT22;3085;49.444;11.054;2022-07-22T06:27:26;21.20;99.90
6110;DHT22;3085;49.444;11.054;2022-07-22T06:29:54;21.00;99.90
6110;DHT22;3085;49.444;11.054;2022-07-22T06:32:21;21.10;99.90
6110;DHT22;3085;49.444;11.054;2022-07-22T06:34:48;21.10;99.90
6110;DHT22;3085;49.444;11.054;2022-07-22T06:37:15;21.30;99.90
6110;DHT22;3085;49.444;11.054;2022-07-22T06:39:41;21.30;99.90
6110;DHT22;3085;49.444;11.054;2022-07-22T06:42:08;21.40;99.90
6110;DHT22;3085;49.444;11.054;2022-07-22T06:44:35;21.50;99.90
6110;DHT22;3085;49.444;11.054;2022-07-22T06:47:03;21.60;99.90
6110;DHT22;3085;49.444;11.054;2022-07-22T06:49:30;21.50;99.90
6110;DHT22;3085;49.444;11.054;2022-07-22T06:51:57;21.50;99.90
6110;DHT22;3085;49.444;11.054;2022-07-22T06:54:24;21.60;99.90
6110;DHT22;3085;49.444;11.054;2022-07-22T06:56:50;21.80;99.90
6110;DHT22;3085;49.444;11.054;2022-07-22T06:59:17;21.90;99.90
6110;DHT22;3085;49.444;11.054;2022-07-22T07:01:44;22.10;99.90
6110;DHT22;3085;49.444;11.054;2022-07-22T07:04:12;22.20;99.90
6110;DHT22;3085;49.444;11.054;2022-07-22T07:06:39;22.30;99.90
6110;DHT22;3085;49.444;11.054;2022-07-22T07:09:06;22.30;99.90
6110;DHT22;3085;49.444;11.054;2022-07-22T07:11:33;22.20;99.90
6110;DHT22;3085;49.444;11.054;2022-07-22T07:14:00;22.40;99.90
6110;DHT22;3085;49.444;11.054;2022-07-22T07:16:26;22.40;99.90
6110;DHT22;3085;49.444;11.054;2022-07-22T07:18:53;22.40;99.90
6110;DHT22;3085;49.444;11.054;2022-07-22T07:21:21;22.50;99.90
6110;DHT22;3085;49.444;11.054;2022-07-22T07:23:48;22.40;99.90
6110;DHT22;3085;49.444;11.054;2022-07-22T07:26:15;22.40;99.90
6110;DHT22;3085;49.444;11.054;2022-07-22T07:28:42;22.40;99.90
6110;DHT22;3085;49.444;11.054;2022-07-22T07:31:09;22.40;99.90
6110;DHT22;3085;49.444;11.054;2022-07-22T07:33:36;22.70;99.90
6110;DHT22;3085;49.444;11.054;2022-07-22T07:36:03;22.80;99.90
6110;DHT22;3085;49.444;11.054;2022-07-22T07:38:31;22.90;99.90
6110;DHT22;3085;49.444;11.054;2022-07-22T07:40:59;22.90;99.90
6110;DHT22;3085;49.444;11.054;2022-07-22T07:43:26;23.00;99.90
6110;DHT22;3085;49.444;11.054;2022-07-22T07:45:53;23.10;99.90
6110;DHT22;3085;49.444;11.054;2022-07-22T07:48:20;23.10;99.90
6110;DHT22;3085;49.444;11.054;2022-07-22T07:50:50;23.30;99.90
6110;DHT22;3085;49.444;11.054;2022-07-22T07:53:17;23.40;99.90
6110;DHT22;3085;49.444;11.054;2022-07-22T07:55:46;23.40;99.90
6110;DHT22;3085;49.444;11.054;2022-07-22T07:58:13;23.30;99.90
6110;DHT22;3085;49.444;11.054;2022-07-22T08:00:40;23.40;99.90
6110;DHT22;3085;49.444;11.054;2022-07-22T08:03:08;23.60;99.90
6110;DHT22;3085;49.444;11.054;2022-07-22T08:05:36;23.80;99.90
6110;DHT22;3085;49.444;11.054;2022-07-22T08:08:05;23.80;99.90
6110;DHT22;3085;49.444;11.054;2022-07-22T08:10:32;23.70;99.90
6110;DHT22;3085;49.444;11.054;2022-07-22T08:13:01;23.70;99.90
6110;DHT22;3085;49.444;11.054;2022-07-22T08:15:28;23.80;99.90
6110;DHT22;3085;49.444;11.054;2022-07-22T08:17:56;24.00;99.90
6110;DHT22;3085;49.444;11.054;2022-07-22T08:20:24;24.00;99.90
6110;DHT22;3085;49.444;11.054;2022-07-22T08:22:51;24.20;99.90
6110;DHT22;3085;49.444;11.054;2022-07-22T08:25:18;24.30;99.90
6110;DHT22;3085;49.444;11.054;2022-07-22T08:27:46;24.40;99.90
6110;DHT22;3085;49.444;11.054;2022-07-22T08:30:15;24.50;99.90
6110;DHT22;3085;49.444;11.054;2022-07-22T08:32:42;24.40;99.90
6110;DHT22;3085;49.444;11.054;2022-07-22T08:35:09;24.40;99.90
6110;DHT22;3085;49.444;11.054;2022-07-22T08:37:37;24.50;99.90
6110;DHT22;3085;49.444;11.054;2022-07-22T08:40:05;24.50;99.90
6110;DHT22;3085;49.444;11.054;2022-07-22T08:42:37;24.50;99.90
6110;DHT22;3085;49.444;11.054;2022-07-22T08:45:05;24.70;99.90
6110;DHT22;3085;49.444;11.054;2022-07-22T08:47:33;24.70;99.90
6110;DHT22;3085;49.444;11.054;2022-07-22T08:50:00;24.80;99.90
6110;DHT22;3085;49.444;11.054;2022-07-22T08:52:27;24.90;99.90
6110;DHT22;3085;49.444;11.054;2022-07-22T08:54:54;25.00;99.90
6110;DHT22;3085;49.444;11.054;2022-07-22T08:57:20;25.00;99.90
6110;DHT22;3085;49.444;11.054;2022-07-22T08:59:52;25.10;99.90
6110;DHT22;3085;49.444;11.054;2022-07-22T09:02:19;25.10;99.90
6110;DHT22;3085;49.444;11.054;2022-07-22T09:04:54;25.00;99.90
6110;DHT22;3085;49.444;11.054;2022-07-22T09:07:26;25.00;99.90
6110;DHT22;3085;49.444;11.054;2022-07-22T09:09:53;25.00;99.90
6110;DHT22;3085;49.444;11.054;2022-07-22T09:12:20;25.10;99.90
6110;DHT22;3085;49.444;11.054;2022-07-22T09:14:49;25.30;99.90
6110;DHT22;3085;49.444;11.054;2022-07-22T09:17:24;25.40;99.90
6110;DHT22;3085;49.444;11.054;2022-07-22T09:19:53;25.50;99.90
6110;DHT22;3085;49.444;11.054;2022-07-22T09:22:37;25.50;99.90
6110;DHT22;3085;49.444;11.054;2022-07-22T09:25:21;25.60;99.90
6110;DHT22;3085;49.444;11.054;2022-07-22T09:27:50;25.60;99.90
6110;DHT22;3085;49.444;11.054;2022-07-22T09:30:18;25.60;99.90
6110;DHT22;3085;49.444;11.054;2022-07-22T09:32:46;25.60;99.90
6110;DHT22;3085;49.444;11.054;2022-07-22T09:35:15;25.70;99.90
6110;DHT22;3085;49.444;11.054;2022-07-22T09:37:49;25.60;99.90
6110;DHT22;3085;49.444;11.054;2022-07-22T09:40:17;25.70;99.90
6110;DHT22;3085;49.444;11.054;2022-07-22T09:42:47;25.80;99.90
6110;DHT22;3085;49.444;11.054;2022-07-22T09:45:14;25.80;99.90
6110;DHT22;3085;49.444;11.054;2022-07-22T09:47:42;25.80;99.90
6110;DHT22;3085;49.444;11.054;2022-07-22T09:50:22;25.90;99.90
6110;DHT22;3085;49.444;11.054;2022-07-22T09:52:50;26.00;99.90
6110;DHT22;3085;49.444;11.054;2022-07-22T09:55:19;26.10;99.90
6110;DHT22;3085;49.444;11.054;2022-07-22T09:57:48;26.20;99.90
6110;DHT22;3085;49.444;11.054;2022-07-22T10:00:17;26.30;99.90
6110;DHT22;3085;49.444;11.054;2022-07-22T10:02:48;26.50;99.90
6110;DHT22;3085;49.444;11.054;2022-07-22T10:05:17;26.40;99.90
6110;DHT22;3085;49.444;11.054;2022-07-22T10:07:47;26.50;99.90
6110;DHT22;3085;49.444;11.054;2022-07-22T10:10:19;26.60;99.90
6110;DHT22;3085;49.444;11.054;2022-07-22T10:12:48;26.70;99.90
6110;DHT22;3085;49.444;11.054;2022-07-22T10:15:15;26.80;99.90
6110;DHT22;3085;49.444;11.054;2022-07-22T10:17:45;26.90;99.90
6110;DHT22;3085;49.444;11.054;2022-07-22T10:20:17;27.00;99.90
6110;DHT22;3085;49.444;11.054;2022-07-22T10:22:48;27.10;99.90
6110;DHT22;3085;49.444;11.054;2022-07-22T10:25:16;27.20;99.90
6110;DHT22;3085;49.444;11.054;2022-07-22T10:27:46;27.10;99.90
6110;DHT22;3085;49.444;11.054;2022-07-22T10:30:15;27.20;99.90
6110;DHT22;3085;49.444;11.054;2022-07-22T10:32:42;27.20;99.90
6110;DHT22;3085;49.444;11.054;2022-07-22T10:35:23;27.10;99.90
6110;DHT22;3085;49.444;11.054;2022-07-22T10:37:55;27.10;99.90
6110;DHT22;3085;49.444;11.054;2022-07-22T10:40:23;27.30;99.90
6110;DHT22;3085;49.444;11.054;2022-07-22T10:43:09;27.30;99.90
6110;DHT22;3085;49.444;11.054;2022-07-22T10:45:40;27.20;99.90
6110;DHT22;3085;49.444;11.054;2022-07-22T10:48:10;27.10;99.90
6110;DHT22;3085;49.444;11.054;2022-07-22T10:53:41;27.20;99.90
6110;DHT22;3085;49.444;11.054;2022-07-22T10:56:26;27.20;99.90
6110;DHT22;3085;49.444;11.054;2022-07-22T10:58:57;27.20;99.90
6110;DHT22;3085;49.444;11.054;2022-07-22T11:01:27;27.20;99.90
6110;DHT22;3085;49.444;11.054;2022-07-22T11:03:55;27.20;99.90
6110;DHT22;3085;49.444;11.054;2022-07-22T11:06:28;27.40;99.90
6110;DHT22;3085;49.444;11.054;2022-07-22T11:08:57;27.50;99.90
6110;DHT22;3085;49.444;11.054;2022-07-22T11:11:39;27.50;99.90
6110;DHT22;3085;49.444;11.054;2022-07-22T11:14:18;27.70;99.90
6110;DHT22;3085;49.444;11.054;2022-07-22T11:16:47;27.80;99.90
6110;DHT22;3085;49.444;11.054;2022-07-22T11:19:14;28.00;99.90
6110;DHT22;3085;49.444;11.054;2022-07-22T11:21:41;28.00;99.90
6110;DHT22;3085;49.444;11.054;2022-07-22T11:24:09;28.20;99.90
6110;DHT22;3085;49.444;11.054;2022-07-22T11:26:40;28.20;99.90
6110;DHT22;3085;49.444;11.054;2022-07-22T11:29:08;27.70;99.90
6110;DHT22;3085;49.444;11.054;2022-07-22T11:31:36;28.20;99.90
6110;DHT22;3085;49.444;11.054;2022-07-22T11:34:07;28.20;99.90
6110;DHT22;3085;49.444;11.054;2022-07-22T11:36:36;28.20;99.90
6110;DHT22;3085;49.444;11.054;2022-07-22T11:39:04;28.20;99.90
6110;DHT22;3085;49.444;11.054;2022-07-22T11:41:33;28.50;99.90
6110;DHT22;3085;49.444;11.054;2022-07-22T11:44:00;28.70;99.90
6110;DHT22;3085;49.444;11.054;2022-07-22T11:46:28;28.90;99.90
6110;DHT22;3085;49.444;11.054;2022-07-22T11:48:55;28.80;99.90
6110;DHT22;3085;49.444;11.054;2022-07-22T11:51:28;28.70;99.90
6110;DHT22;3085;49.444;11.054;2022-07-22T11:53:56;28.80;99.90
6110;DHT22;3085;49.444;11.054;2022-07-22T11:56:23;28.80;99.90
6110;DHT22;3085;49.444;11.054;2022-07-22T11:58:52;28.90;99.90
6110;DHT22;3085;49.444;11.054;2022-07-22T12:01:21;29.00;99.90
6110;DHT22;3085;49.444;11.054;2022-07-22T12:03:50;29.10;99.90
6110;DHT22;3085;49.444;11.054;2022-07-22T12:06:19;29.10;99.90
6110;DHT22;3085;49.444;11.054;2022-07-22T12:08:48;29.00;99.90
6110;DHT22;3085;49.444;11.054;2022-07-22T12:11:17;28.90;99.90
6110;DHT22;3085;49.444;11.054;2022-07-22T12:13:46;28.90;99.90
6110;DHT22;3085;49.444;11.054;2022-07-22T12:16:24;28.90;99.90
6110;DHT22;3085;49.444;11.054;2022-07-22T12:18:59;29.10;99.90
6110;DHT22;3085;49.444;11.054;2022-07-22T12:21:28;29.50;99.90
6110;DHT22;3085;49.444;11.054;2022-07-22T12:23:57;29.50;99.90
6110;DHT22;3085;49.444;11.054;2022-07-22T12:26:40;29.30;99.90
6110;DHT22;3085;49.444;11.054;2022-07-22T12:29:20;29.20;99.90
6110;DHT22;3085;49.444;11.054;2022-07-22T12:31:50;29.50;99.90
6110;DHT22;3085;49.444;11.054;2022-07-22T12:34:29;29.60;99.90
6110;DHT22;3085;49.444;11.054;2022-07-22T12:36:57;29.70;99.90
6110;DHT22;3085;49.444;11.054;2022-07-22T12:39:24;29.70;99.50
6110;DHT22;3085;49.444;11.054;2022-07-22T12:41:52;29.70;99.10
6110;DHT22;3085;49.444;11.054;2022-07-22T12:44:21;29.80;99.20
6110;DHT22;3085;49.444;11.054;2022-07-22T12:46:52;29.80;99.20
6110;DHT22;3085;49.444;11.054;2022-07-22T12:49:20;29.90;98.80
6110;DHT22;3085;49.444;11.054;2022-07-22T12:52:10;29.70;98.60
6110;DHT22;3085;49.444;11.054;2022-07-22T12:54:38;29.80;98.00
6110;DHT22;3085;49.444;11.054;2022-07-22T12:57:05;29.90;97.70
6110;DHT22;3085;49.444;11.054;2022-07-22T12:59:32;29.90;97.80
6110;DHT22;3085;49.444;11.054;2022-07-22T13:02:01;30.10;97.70
6110;DHT22;3085;49.444;11.054;2022-07-22T13:04:28;30.20;97.60
6110;DHT22;3085;49.444;11.054;2022-07-22T13:06:55;30.30;98.00
6110;DHT22;3085;49.444;11.054;2022-07-22T13:09:22;30.50;97.50
6110;DHT22;3085;49.444;11.054;2022-07-22T13:11:49;30.40;97.70
6110;DHT22;3085;49.444;11.054;2022-07-22T13:14:16;30.50;97.40
6110;DHT22;3085;49.444;11.054;2022-07-22T13:16:43;30.70;97.70
6110;DHT22;3085;49.444;11.054;2022-07-22T13:19:11;30.80;96.70
6110;DHT22;3085;49.444;11.054;2022-07-22T13:21:38;30.80;96.60
6110;DHT22;3085;49.444;11.054;2022-07-22T13:24:05;30.70;96.50
6110;DHT22;3085;49.444;11.054;2022-07-22T13:26:32;30.70;96.60
6110;DHT22;3085;49.444;11.054;2022-07-22T13:28:59;30.70;96.40
6110;DHT22;3085;49.444;11.054;2022-07-22T13:31:26;30.70;96.20
6110;DHT22;3085;49.444;11.054;2022-07-22T13:33:53;30.80;96.60
6110;DHT22;3085;49.444;11.054;2022-07-22T13:36:21;31.00;96.40
6110;DHT22;3085;49.444;11.054;2022-07-22T13:38:49;31.00;95.70
6110;DHT22;3085;49.444;11.054;2022-07-22T13:41:16;30.90;95.60
6110;DHT22;3085;49.444;11.054;2022-07-22T13:43:44;30.90;95.10
6110;DHT22;3085;49.444;11.054;2022-07-22T13:46:11;30.80;95.10
6110;DHT22;3085;49.444;11.054;2022-07-22T13:48:38;30.70;95.60
6110;DHT22;3085;49.444;11.054;2022-07-22T13:51:05;30.80;95.30
6110;DHT22;3085;49.444;11.054;2022-07-22T13:53:34;30.70;95.10
6110;DHT22;3085;49.444;11.054;2022-07-22T13:56:01;30.60;94.90
6110;DHT22;3085;49.444;11.054;2022-07-22T13:58:28;30.60;95.20
6110;DHT22;3085;49.444;11.054;2022-07-22T14:00:55;30.80;95.10
6110;DHT22;3085;49.444;11.054;2022-07-22T14:03:22;30.90;95.00
6110;DHT22;3085;49.444;11.054;2022-07-22T14:05:49;30.80;94.60
6110;DHT22;3085;49.444;11.054;2022-07-22T14:08:16;30.60;94.30
6110;DHT22;3085;49.444;11.054;2022-07-22T14:10:44;30.60;94.80
6110;DHT22;3085;49.444;11.054;2022-07-22T14:13:12;30.60;94.40
6110;DHT22;3085;49.444;11.054;2022-07-22T14:15:39;30.70;94.30
6110;DHT22;3085;49.444;11.054;2022-07-22T14:18:05;30.90;94.00
6110;DHT22;3085;49.444;11.054;2022-07-22T14:20:33;31.10;94.10
6110;DHT22;3085;49.444;11.054;2022-07-22T14:23:00;31.20;93.60
6110;DHT22;3085;49.444;11.054;2022-07-22T14:25:28;31.40;93.60
6110;DHT22;3085;49.444;11.054;2022-07-22T14:27:58;31.30;93.60
6110;DHT22;3085;49.444;11.054;2022-07-22T14:30:25;31.40;93.40
6110;DHT22;3085;49.444;11.054;2022-07-22T14:32:53;31.30;93.50
6110;DHT22;3085;49.444;11.054;2022-07-22T14:35:20;31.60;93.50
6110;DHT22;3085;49.444;11.054;2022-07-22T14:37:48;31.60;92.90
6110;DHT22;3085;49.444;11.054;2022-07-22T14:40:15;31.60;93.00
6110;DHT22;3085;49.444;11.054;2022-07-22T14:42:42;31.80;93.00
6110;DHT22;3085;49.444;11.054;2022-07-22T14:45:11;31.80;92.60
6110;DHT22;3085;49.444;11.054;2022-07-22T14:47:40;31.90;93.00
6110;DHT22;3085;49.444;11.054;2022-07-22T14:50:08;32.10;92.50
6110;DHT22;3085;49.444;11.054;2022-07-22T14:52:35;32.10;92.30
6110;DHT22;3085;49.444;11.054;2022-07-22T14:55:02;32.10;92.10
6110;DHT22;3085;49.444;11.054;2022-07-22T14:57:30;32.10;92.10
6110;DHT22;3085;49.444;11.054;2022-07-22T14:59:57;32.20;92.10
6110;DHT22;3085;49.444;11.054;2022-07-22T15:02:26;32.20;91.80
6110;DHT22;3085;49.444;11.054;2022-07-22T15:04:53;32.20;91.90
6110;DHT22;3085;49.444;11.054;2022-07-22T15:07:20;32.10;91.90
6110;DHT22;3085;49.444;11.054;2022-07-22T15:09:47;32.20;92.20
6110;DHT22;3085;49.444;11.054;2022-07-22T15:12:16;32.60;91.80
6110;DHT22;3085;49.444;11.054;2022-07-22T15:14:43;32.60;91.30
6110;DHT22;3085;49.444;11.054;2022-07-22T15:17:10;32.60;91.40
6110;DHT22;3085;49.444;11.054;2022-07-22T15:19:38;32.70;91.70
6110;DHT22;3085;49.444;11.054;2022-07-22T15:22:05;32.80;91.00
6110;DHT22;3085;49.444;11.054;2022-07-22T15:24:34;32.80;90.90
6110;DHT22;3085;49.444;11.054;2022-07-22T15:27:01;32.80;90.40
6110;DHT22;3085;49.444;11.054;2022-07-22T15:29:28;32.50;90.60
6110;DHT22;3085;49.444;11.054;2022-07-22T15:31:56;32.60;90.90
6110;DHT22;3085;49.444;11.054;2022-07-22T15:34:26;33.00;92.10
6110;DHT22;3085;49.444;11.054;2022-07-22T15:36:58;32.90;90.20
6110;DHT22;3085;49.444;11.054;2022-07-22T15:39:25;32.90;90.70
6110;DHT22;3085;49.444;11.054;2022-07-22T15:41:52;33.50;90.20
6110;DHT22;3085;49.444;11.054;2022-07-22T15:44:19;32.70;90.10
6110;DHT22;3085;49.444;11.054;2022-07-22T15:46:46;32.90;90.00
6110;DHT22;3085;49.444;11.054;2022-07-22T15:49:14;32.80;89.90
6110;DHT22;3085;49.444;11.054;2022-07-22T15:51:42;32.80;89.40
6110;DHT22;3085;49.444;11.054;2022-07-22T15:54:11;32.40;89.50